sensor_id;sensor_type;location;lat;lon;timestamp;temperature;humidity
22436;DHT22;11385;50.822;4.324;2023-04-19T00:00:46;11.60;99.90
22436;DHT22;11385;50.822;4.324;2023-04-19T00:03:14;11.50;99.90
22436;DHT22;11385;50.822;4.324;2023-04-19T00:05:42;11.40;99.90
22436;DHT22;11385;50.822;4.324;2023-04-19T00:08:09;11.50;99.90
22436;DHT22;11385;50.822;4.324;2023-04-19T00:10:38;11.30;99.90
22436;DHT22;11385;50.822;4.324;2023-04-19T00:13:06;11.30;99.90
22436;DHT22;11385;50.822;4.324;2023-04-19T00:15:32;11.30;99.90
22436;DHT22;11385;50.822;4.324;2023-04-19T00:18:00;11.50;99.90
22436;DHT22;11385;50.822;4.324;2023-04-19T00:20:27;11.50;99.90
22436;DHT22;11385;50.822;4.324;2023-04-19T00:22:53;11.40;99.90
22436;DHT22;11385;50.822;4.324;2023-04-19T00:25:20;11.30;99.90
22436;DHT22;11385;50.822;4.324;2023-04-19T00:27:47;11.40;99.90
22436;DHT22;11385;50.822;4.324;2023-04-19T00:30:14;11.20;99.90
22436;DHT22;11385;50.822;4.324;2023-04-19T00:32:41;11.10;99.90
22436;DHT22;11385;50.822;4.324;2023-04-19T00:35:08;11.10;99.90
22436;DHT22;11385;50.822;4.324;2023-04-19T00:37:35;11.20;99.90
22436;DHT22;11385;50.822;4.324;2023-04-19T00:40:02;11.30;99.90
22436;DHT22;11385;50.822;4.324;2023-04-19T00:42:30;11.40;99.90
22436;DHT22;11385;50.822;4.324;2023-04-19T00:44:57;11.30;99.90
22436;DHT22;11385;50.822;4.324;2023-04-19T00:47:23;11.30;99.90
22436;DHT22;11385;50.822;4.324;2023-04-19T00:49:50;11.40;99.90
22436;DHT22;11385;50.822;4.324;2023-04-19T00:52:18;11.30;99.90
22436;DHT22;11385;50.822;4.324;2023-04-19T00:54:45;11.30;99.90
22436;DHT22;11385;50.822;4.324;2023-04-19T00:57:12;11.30;99.90
22436;DHT22;11385;50.822;4.324;2023-04-19T00:59:40;11.20;99.90
22436;DHT22;11385;50.822;4.324;2023-04-19T01:02:08;11.20;99.90
22436;DHT22;11385;50.822;4.324;2023-04-19T01:04:36;11.20;99.90
22436;DHT22;11385;50.822;4.324;2023-04-19T01:07:02;11.10;99.90
22436;DHT22;11385;50.822;4.324;2023-04-19T01:09:29;11.20;99.90
22436;DHT22;11385;50.822;4.324;2023-04-19T01:11:56;11.30;99.90
22436;DHT22;11385;50.822;4.324;2023-04-19T01:14:23;11.10;99.90
22436;DHT22;11385;50.822;4.324;2023-04-19T01:16:51;10.90;99.90
22436;DHT22;11385;50.822;4.324;2023-04-19T01:19:17;10.80;99.90
22436;DHT22;11385;50.822;4.324;2023-04-19T01:21:44;10.60;99.90
22436;DHT22;11385;50.822;4.324;2023-04-19T01:24:11;10.80;99.90
22436;DHT22;11385;50.822;4.324;2023-04-19T01:26:38;10.60;99.90
22436;DHT22;11385;50.822;4.324;2023-04-19T01:29:05;10.70;99.90
22436;DHT22;11385;50.822;4.324;2023-04-19T01:31:31;10.90;99.90
22436;DHT22;11385;50.822;4.324;2023-04-19T01:33:58;11.00;99.90
22436;DHT22;11385;50.822;4.324;2023-04-19T01:36:24;11.00;99.90
22436;DHT22;11385;50.822;4.324;2023-04-19T01:38:53;11.00;99.90
22436;DHT22;11385;50.822;4.324;2023-04-19T01:41:20;10.90;99.90
22436;DHT22;11385;50.822;4.324;2023-04-19T01:43:47;10.70;99.90
22436;DHT22;11385;50.822;4.324;2023-04-19T01:46:15;10.60;99.90
22436;DHT22;11385;50.822;4.324;2023-04-19T01:48:41;10.60;99.90
22436;DHT22;11385;50.822;4.324;2023-04-19T01:51:09;10.50;99.90
22436;DHT22;11385;50.822;4.324;2023-04-19T01:53:36;10.50;99.90
22436;DHT22;11385;50.822;4.324;2023-04-19T01:56:03;10.40;99.90
22436;DHT22;11385;50.822;4.324;2023-04-19T01:58:29;10.40;99.90
22436;DHT22;11385;50.822;4.324;2023-04-19T02:00:56;10.50;99.90
22436;DHT22;11385;50.822;4.324;2023-04-19T02:03:23;10.50;99.90
22436;DHT22;11385;50.822;4.324;2023-04-19T02:05:49;10.60;99.90
22436;DHT22;11385;50.822;4.324;2023-04-19T02:08:16;10.60;99.90
22436;DHT22;11385;50.822;4.324;2023-04-19T02:10:43;10.70;99.90
22436;DHT22;11385;50.822;4.324;2023-04-19T02:13:10;10.60;99.90
22436;DHT22;11385;50.822;4.324;2023-04-19T02:15:36;10.60;99.90
22436;DHT22;11385;50.822;4.324;2023-04-19T02:18:03;10.80;99.90
22436;DHT22;11385;50.822;4.324;2023-04-19T02:20:31;10.80;99.90
22436;DHT22;11385;50.822;4.324;2023-04-19T02:22:58;10.90;99.90
22436;DHT22;11385;50.822;4.324;2023-04-19T02:25:25;11.20;99.90
22436;DHT22;11385;50.822;4.324;2023-04-19T02:27:52;11.30;99.90
22436;DHT22;11385;50.822;4.324;2023-04-19T02:30:19;11.40;99.90
22436;DHT22;11385;50.822;4.324;2023-04-19T02:32:47;11.40;99.90
22436;DHT22;11385;50.822;4.324;2023-04-19T02:35:14;11.30;99.90
22436;DHT22;11385;50.822;4.324;2023-04-19T02:37:43;11.30;99.90
22436;DHT22;11385;50.822;4.324;2023-04-19T02:40:10;11.20;99.90
22436;DHT22;11385;50.822;4.324;2023-04-19T02:42:36;11.20;99.90
22436;DHT22;11385;50.822;4.324;2023-04-19T02:45:03;11.30;99.90
22436;DHT22;11385;50.822;4.324;2023-04-19T02:47:30;11.50;99.90
22436;DHT22;11385;50.822;4.324;2023-04-19T02:49:58;11.40;99.90
22436;DHT22;11385;50.822;4.324;2023-04-19T02:52:25;11.60;99.90
22436;DHT22;11385;50.822;4.324;2023-04-19T02:54:52;11.60;99.90
22436;DHT22;11385;50.822;4.324;2023-04-19T02:57:19;11.50;99.90
22436;DHT22;11385;50.822;4.324;2023-04-19T02:59:46;11.40;99.90
22436;DHT22;11385;50.822;4.324;2023-04-19T03:02:14;11.40;99.90
22436;DHT22;11385;50.822;4.324;2023-04-19T03:04:41;11.60;99.90
22436;DHT22;11385;50.822;4.324;2023-04-19T03:07:09;11.60;99.90
22436;DHT22;11385;50.822;4.324;2023-04-19T03:09:35;11.70;99.90
22436;DHT22;11385;50.822;4.324;2023-04-19T03:12:02;11.60;99.90
22436;DHT22;11385;50.822;4.324;2023-04-19T03:14:29;11.60;99.90
22436;DHT22;11385;50.822;4.324;2023-04-19T03:16:56;11.80;99.90
22436;DHT22;11385;50.822;4.324;2023-04-19T03:19:23;11.70;99.90
22436;DHT22;11385;50.822;4.324;2023-04-19T03:21:50;11.80;99.90
22436;DHT22;11385;50.822;4.324;2023-04-19T03:24:18;11.70;99.90
22436;DHT22;11385;50.822;4.324;2023-04-19T03:26:45;11.70;99.90
22436;DHT22;11385;50.822;4.324;2023-04-19T03:29:12;11.70;99.90
22436;DHT22;11385;50.822;4.324;2023-04-19T03:31:40;11.70;99.90
22436;DHT22;11385;50.822;4.324;2023-04-19T03:34:07;11.70;99.90
22436;DHT22;11385;50.822;4.324;2023-04-19T03:36:34;11.80;99.90
22436;DHT22;11385;50.822;4.324;2023-04-19T03:39:02;11.70;99.90
22436;DHT22;11385;50.822;4.324;2023-04-19T03:41:29;11.70;99.90
22436;DHT22;11385;50.822;4.324;2023-04-19T03:43:55;11.60;99.90
22436;DHT22;11385;50.822;4.324;2023-04-19T03:46:23;11.40;99.90
22436;DHT22;11385;50.822;4.324;2023-04-19T03:48:50;11.30;99.90
22436;DHT22;11385;50.822;4.324;2023-04-19T03:51:18;11.50;99.90
22436;DHT22;11385;50.822;4.324;2023-04-19T03:53:44;11.50;99.90
22436;DHT22;11385;50.822;4.324;2023-04-19T03:56:11;11.50;99.90
22436;DHT22;11385;50.822;4.324;2023-04-19T03:58:38;11.50;99.90
22436;DHT22;11385;50.822;4.324;2023-04-19T04:01:05;11.30;99.90
22436;DHT22;11385;50.822;4.324;2023-04-19T04:03:34;11.20;99.90
22436;DHT22;11385;50.822;4.324;2023-04-19T04:06:01;11.10;99.90
22436;DHT22;11385;50.822;4.324;2023-04-19T04:08:28;11.00;99.90
22436;DHT22;11385;50.822;4.324;2023-04-19T04:10:54;11.00;99.90
22436;DHT22;11385;50.822;4.324;2023-04-19T04:13:21;11.10;99.90
22436;DHT22;11385;50.822;4.324;2023-04-19T04:19:06;11.20;99.90
22436;DHT22;11385;50.822;4.324;2023-04-19T04:21:33;11.00;99.90
22436;DHT22;11385;50.822;4.324;2023-04-19T04:24:00;10.90;99.90
22436;DHT22;11385;50.822;4.324;2023-04-19T04:26:29;10.90;99.90
22436;DHT22;11385;50.822;4.324;2023-04-19T04:28:56;11.00;99.90
22436;DHT22;11385;50.822;4.324;2023-04-19T04:31:23;10.80;99.90
22436;DHT22;11385;50.822;4.324;2023-04-19T04:33:53;10.80;99.90
22436;DHT22;11385;50.822;4.324;2023-04-19T04:36:21;10.80;99.90
22436;DHT22;11385;50.822;4.324;2023-04-19T04:38:48;10.80;99.90
22436;DHT22;11385;50.822;4.324;2023-04-19T04:41:14;10.70;99.90
22436;DHT22;11385;50.822;4.324;2023-04-19T04:43:41;10.60;99.90
22436;DHT22;11385;50.822;4.324;2023-04-19T04:46:09;10.60;99.90
22436;DHT22;11385;50.822;4.324;2023-04-19T04:48:36;10.70;99.90
22436;DHT22;11385;50.822;4.324;2023-04-19T04:51:03;10.70;99.90
22436;DHT22;11385;50.822;4.324;2023-04-19T04:53:30;10.70;99.90
22436;DHT22;11385;50.822;4.324;2023-04-19T04:55:58;10.80;99.90
22436;DHT22;11385;50.822;4.324;2023-04-19T04:58:25;10.80;99.90
22436;DHT22;11385;50.822;4.324;2023-04-19T05:00:51;10.80;99.90
22436;DHT22;11385;50.822;4.324;2023-04-19T05:03:18;10.70;99.90
22436;DHT22;11385;50.822;4.324;2023-04-19T05:05:45;10.70;99.90
22436;DHT22;11385;50.822;4.324;2023-04-19T05:08:11;10.60;99.90
22436;DHT22;11385;50.822;4.324;2023-04-19T05:10:38;10.60;99.90
22436;DHT22;11385;50.822;4.324;2023-04-19T05:13:06;10.70;99.90
22436;DHT22;11385;50.822;4.324;2023-04-19T05:15:33;10.90;99.90
22436;DHT22;11385;50.822;4.324;2023-04-19T05:18:03;10.60;99.90
22436;DHT22;11385;50.822;4.324;2023-04-19T05:20:30;10.70;99.90
22436;DHT22;11385;50.822;4.324;2023-04-19T05:22:59;10.80;99.90
22436;DHT22;11385;50.822;4.324;2023-04-19T05:25:28;11.10;99.90
22436;DHT22;11385;50.822;4.324;2023-04-19T05:27:58;10.90;99.90
22436;DHT22;11385;50.822;4.324;2023-04-19T05:30:25;10.70;99.90
22436;DHT22;11385;50.822;4.324;2023-04-19T05:32:54;10.90;99.90
22436;DHT22;11385;50.822;4.324;2023-04-19T05:35:22;10.70;99.90
22436;DHT22;11385;50.822;4.324;2023-04-19T05:37:48;10.80;99.90
22436;DHT22;11385;50.822;4.324;2023-04-19T05:40:15;10.90;99.90
22436;DHT22;11385;50.822;4.324;2023-04-19T05:42:42;11.00;99.90
22436;DHT22;11385;50.822;4.324;2023-04-19T05:45:09;11.00;99.90
22436;DHT22;11385;50.822;4.324;2023-04-19T05:47:36;10.90;99.90
22436;DHT22;11385;50.822;4.324;2023-04-19T05:50:06;11.00;99.90
22436;DHT22;11385;50.822;4.324;2023-04-19T05:52:33;10.90;99.90
22436;DHT22;11385;50.822;4.324;2023-04-19T05:54:59;10.80;99.90
22436;DHT22;11385;50.822;4.324;2023-04-19T05:57:26;10.80;99.90
22436;DHT22;11385;50.822;4.324;2023-04-19T05:59:53;10.90;99.90
22436;DHT22;11385;50.822;4.324;2023-04-19T06:02:20;10.90;99.90
22436;DHT22;11385;50.822;4.324;2023-04-19T06:04:47;11.00;99.90
22436;DHT22;11385;50.822;4.324;2023-04-19T06:07:14;11.00;99.90
22436;DHT22;11385;50.822;4.324;2023-04-19T06:09:41;11.00;99.90
22436;DHT22;11385;50.822;4.324;2023-04-19T06:12:07;11.20;99.90
22436;DHT22;11385;50.822;4.324;2023-04-19T06:14:34;11.00;99.90
22436;DHT22;11385;50.822;4.324;2023-04-19T06:17:01;11.10;99.90
22436;DHT22;11385;50.822;4.324;2023-04-19T06:19:28;11.20;99.90
22436;DHT22;11385;50.822;4.324;2023-04-19T06:21:54;11.30;99.90
22436;DHT22;11385;50.822;4.324;2023-04-19T06:24:21;11.30;99.90
22436;DHT22;11385;50.822;4.324;2023-04-19T06:26:48;11.30;99.90
22436;DHT22;11385;50.822;4.324;2023-04-19T06:29:15;11.30;99.90
22436;DHT22;11385;50.822;4.324;2023-04-19T06:31:41;11.30;99.90
22436;DHT22;11385;50.822;4.324;2023-04-19T06:34:08;11.40;99.90
22436;DHT22;11385;50.822;4.324;2023-04-19T06:36:36;11.40;99.90
22436;DHT22;11385;50.822;4.324;2023-04-19T06:39:02;11.60;99.90
22436;DHT22;11385;50.822;4.324;2023-04-19T06:41:29;11.70;99.90
22436;DHT22;11385;50.822;4.324;2023-04-19T06:43:56;11.70;99.90
22436;DHT22;11385;50.822;4.324;2023-04-19T06:46:23;11.80;99.90
22436;DHT22;11385;50.822;4.324;2023-04-19T06:48:49;11.80;99.90
22436;DHT22;11385;50.822;4.324;2023-04-19T06:51:16;11.90;99.90
22436;DHT22;11385;50.822;4.324;2023-04-19T06:53:43;11.80;99.90
22436;DHT22;11385;50.822;4.324;2023-04-19T06:56:09;11.90;99.90
22436;DHT22;11385;50.822;4.324;2023-04-19T06:58:37;11.80;99.90
22436;DHT22;11385;50.822;4.324;2023-04-19T07:01:04;12.00;99.90
22436;DHT22;11385;50.822;4.324;2023-04-19T07:03:32;12.20;99.90
22436;DHT22;11385;50.822;4.324;2023-04-19T07:05:59;12.50;99.90
22436;DHT22;11385;50.822;4.324;2023-04-19T07:08:26;12.60;99.90
22436;DHT22;11385;50.822;4.324;2023-04-19T07:10:52;12.60;99.90
22436;DHT22;11385;50.822;4.324;2023-04-19T07:13:21;12.50;99.90
22436;DHT22;11385;50.822;4.324;2023-04-19T07:15:48;12.50;99.90
22436;DHT22;11385;50.822;4.324;2023-04-19T07:18:15;12.50;99.90
22436;DHT22;11385;50.822;4.324;2023-04-19T07:20:41;12.60;99.90
22436;DHT22;11385;50.822;4.324;2023-04-19T07:23:10;12.80;99.90
22436;DHT22;11385;50.822;4.324;2023-04-19T07:25:37;12.90;99.90
22436;DHT22;11385;50.822;4.324;2023-04-19T07:28:04;12.90;99.90
22436;DHT22;11385;50.822;4.324;2023-04-19T07:30:30;13.00;99.90
22436;DHT22;11385;50.822;4.324;2023-04-19T07:32:57;13.10;99.90
22436;DHT22;11385;50.822;4.324;2023-04-19T07:35:23;13.20;99.90
22436;DHT22;11385;50.822;4.324;2023-04-19T07:37:50;13.40;99.90
22436;DHT22;11385;50.822;4.324;2023-04-19T07:40:17;13.50;99.90
22436;DHT22;11385;50.822;4.324;2023-04-19T07:42:45;13.50;99.90
22436;DHT22;11385;50.822;4.324;2023-04-19T07:45:12;13.70;99.90
22436;DHT22;11385;50.822;4.324;2023-04-19T07:47:39;13.70;99.90
22436;DHT22;11385;50.822;4.324;2023-04-19T07:50:08;13.60;99.90
22436;DHT22;11385;50.822;4.324;2023-04-19T07:52:35;13.70;99.90
22436;DHT22;11385;50.822;4.324;2023-04-19T07:55:02;13.90;99.90
22436;DHT22;11385;50.822;4.324;2023-04-19T07:57:29;14.00;99.90
22436;DHT22;11385;50.822;4.324;2023-04-19T07:59:56;13.70;99.90
22436;DHT22;11385;50.822;4.324;2023-04-19T08:02:25;13.90;99.90
22436;DHT22;11385;50.822;4.324;2023-04-19T08:04:53;13.90;99.90
22436;DHT22;11385;50.822;4.324;2023-04-19T08:07:20;13.80;99.90
22436;DHT22;11385;50.822;4.324;2023-04-19T08:09:48;13.70;99.90
22436;DHT22;11385;50.822;4.324;2023-04-19T08:12:15;13.80;99.90
22436;DHT22;11385;50.822;4.324;2023-04-19T08:14:44;13.70;99.90
22436;DHT22;11385;50.822;4.324;2023-04-19T08:17:11;14.00;99.90
22436;DHT22;11385;50.822;4.324;2023-04-19T08:19:38;14.00;99.90
22436;DHT22;11385;50.822;4.324;2023-04-19T08:22:05;14.00;99.90
22436;DHT22;11385;50.822;4.324;2023-04-19T08:24:32;14.00;99.90
22436;DHT22;11385;50.822;4.324;2023-04-19T08:26:59;14.10;99.90
22436;DHT22;11385;50.822;4.324;2023-04-19T08:29:26;14.30;99.90
22436;DHT22;11385;50.822;4.324;2023-04-19T08:31:53;14.40;99.90
22436;DHT22;11385;50.822;4.324;2023-04-19T08:34:19;14.40;99.90
22436;DHT22;11385;50.822;4.324;2023-04-19T08:36:46;14.70;99.90
22436;DHT22;11385;50.822;4.324;2023-04-19T08:39:13;15.00;99.90
22436;DHT22;11385;50.822;4.324;2023-04-19T08:41:40;15.00;99.90
22436;DHT22;11385;50.822;4.324;2023-04-19T08:44:06;15.20;99.90
22436;DHT22;11385;50.822;4.324;2023-04-19T08:46:35;15.10;99.90
22436;DHT22;11385;50.822;4.324;2023-04-19T08:49:04;15.40;99.90
22436;DHT22;11385;50.822;4.324;2023-04-19T08:51:32;15.50;99.90
22436;DHT22;11385;50.822;4.324;2023-04-19T08:54:00;15.40;99.90
22436;DHT22;11385;50.822;4.324;2023-04-19T08:56:29;15.30;99.90
22436;DHT22;11385;50.822;4.324;2023-04-19T08:58:58;15.20;99.90
22436;DHT22;11385;50.822;4.324;2023-04-19T09:01:25;14.90;99.90
22436;DHT22;11385;50.822;4.324;2023-04-19T09:03:52;14.90;99.90
22436;DHT22;11385;50.822;4.324;2023-04-19T09:06:19;14.80;99.90
22436;DHT22;11385;50.822;4.324;2023-04-19T09:08:47;14.90;99.90
22436;DHT22;11385;50.822;4.324;2023-04-19T09:11:13;15.00;99.90
22436;DHT22;11385;50.822;4.324;2023-04-19T09:13:40;15.10;99.90
22436;DHT22;11385;50.822;4.324;2023-04-19T09:18:59;15.20;99.90
22436;DHT22;11385;50.822;4.324;2023-04-19T09:21:27;15.30;99.90
22436;DHT22;11385;50.822;4.324;2023-04-19T09:23:55;15.30;99.90
22436;DHT22;11385;50.822;4.324;2023-04-19T09:26:22;15.50;99.90
22436;DHT22;11385;50.822;4.324;2023-04-19T09:28:56;15.80;99.90
22436;DHT22;11385;50.822;4.324;2023-04-19T09:31:24;15.90;99.90
22436;DHT22;11385;50.822;4.324;2023-04-19T09:33:51;16.00;99.90
22436;DHT22;11385;50.822;4.324;2023-04-19T09:36:29;16.10;99.90
22436;DHT22;11385;50.822;4.324;2023-04-19T09:38:57;16.20;99.90
22436;DHT22;11385;50.822;4.324;2023-04-19T09:41:24;16.30;99.90
22436;DHT22;11385;50.822;4.324;2023-04-19T09:43:52;16.70;99.90
22436;DHT22;11385;50.822;4.324;2023-04-19T09:46:36;16.70;99.90
22436;DHT22;11385;50.822;4.324;2023-04-19T09:49:24;17.10;99.90
22436;DHT22;11385;50.822;4.324;2023-04-19T09:51:55;17.20;99.90
22436;DHT22;11385;50.822;4.324;2023-04-19T09:54:24;17.50;99.90
22436;DHT22;11385;50.822;4.324;2023-04-19T09:56:52;17.70;99.90
22436;DHT22;11385;50.822;4.324;2023-04-19T09:59:19;17.40;99.90
22436;DHT22;11385;50.822;4.324;2023-04-19T10:01:51;17.20;99.90
22436;DHT22;11385;50.822;4.324;2023-04-19T10:04:19;17.30;99.90
22436;DHT22;11385;50.822;4.324;2023-04-19T10:06:48;17.20;99.90
22436;DHT22;11385;50.822;4.324;2023-04-19T10:09:21;17.10;99.90
22436;DHT22;11385;50.822;4.324;2023-04-19T10:11:50;17.10;99.90
22436;DHT22;11385;50.822;4.324;2023-04-19T10:14:20;17.30;99.90
22436;DHT22;11385;50.822;4.324;2023-04-19T10:16:50;17.50;99.90
22436;DHT22;11385;50.822;4.324;2023-04-19T10:19:19;17.40;99.90
22436;DHT22;11385;50.822;4.324;2023-04-19T10:21:47;17.50;99.90
22436;DHT22;11385;50.822;4.324;2023-04-19T10:24:15;17.30;99.90
22436;DHT22;11385;50.822;4.324;2023-04-19T10:32:05;17.30;99.90
22436;DHT22;11385;50.822;4.324;2023-04-19T10:34:36;17.60;99.90
22436;DHT22;11385;50.822;4.324;2023-04-19T10:37:03;17.70;99.90
22436;DHT22;11385;50.822;4.324;2023-04-19T10:39:42;17.70;99.90
22436;DHT22;11385;50.822;4.324;2023-04-19T10:42:11;18.00;99.90
22436;DHT22;11385;50.822;4.324;2023-04-19T10:44:39;17.60;99.90
22436;DHT22;11385;50.822;4.324;2023-04-19T10:47:06;17.40;99.90
22436;DHT22;11385;50.822;4.324;2023-04-19T10:49:50;17.40;99.90
22436;DHT22;11385;50.822;4.324;2023-04-19T10:55:05;18.00;99.90
22436;DHT22;11385;50.822;4.324;2023-04-19T11:00:18;18.20;99.90
22436;DHT22;11385;50.822;4.324;2023-04-19T11:02:47;18.40;99.90
22436;DHT22;11385;50.822;4.324;2023-04-19T11:05:14;18.00;99.90
22436;DHT22;11385;50.822;4.324;2023-04-19T11:07:42;17.80;99.90
22436;DHT22;11385;50.822;4.324;2023-04-19T11:10:12;17.60;99.90
22436;DHT22;11385;50.822;4.324;2023-04-19T11:12:46;17.60;99.90
22436;DHT22;11385;50.822;4.324;2023-04-19T11:15:15;17.80;99.90
22436;DHT22;11385;50.822;4.324;2023-04-19T11:17:42;17.90;99.90
22436;DHT22;11385;50.822;4.324;2023-04-19T11:20:11;18.10;99.90
22436;DHT22;11385;50.822;4.324;2023-04-19T11:22:45;18.50;99.90
22436;DHT22;11385;50.822;4.324;2023-04-19T11:25:15;18.20;99.90
22436;DHT22;11385;50.822;4.324;2023-04-19T11:27:48;18.30;99.90
22436;DHT22;11385;50.822;4.324;2023-04-19T11:30:18;18.10;99.90
22436;DHT22;11385;50.822;4.324;2023-04-19T11:32:47;18.00;99.90
22436;DHT22;11385;50.822;4.324;2023-04-19T11:35:19;18.10;99.90
22436;DHT22;11385;50.822;4.324;2023-04-19T11:37:46;18.10;99.90
22436;DHT22;11385;50.822;4.324;2023-04-19T11:40:14;18.50;99.90
22436;DHT22;11385;50.822;4.324;2023-04-19T11:42:44;19.10;99.90
22436;DHT22;11385;50.822;4.324;2023-04-19T11:45:12;19.20;99.90
22436;DHT22;11385;50.822;4.324;2023-04-19T11:47:46;18.90;99.90
22436;DHT22;11385;50.822;4.324;2023-04-19T11:52:53;19.10;99.90
22436;DHT22;11385;50.822;4.324;2023-04-19T11:55:31;19.10;99.90
22436;DHT22;11385;50.822;4.324;2023-04-19T11:57:58;19.10;99.90
22436;DHT22;11385;50.822;4.324;2023-04-19T12:00:27;18.80;99.90
22436;DHT22;11385;50.822;4.324;2023-04-19T12:02:54;18.50;99.90
22436;DHT22;11385;50.822;4.324;2023-04-19T12:05:22;18.20;99.90
22436;DHT22;11385;50.822;4.324;2023-04-19T12:07:58;18.20;99.90
22436;DHT22;11385;50.822;4.324;2023-04-19T12:10:29;18.40;99.90
22436;DHT22;11385;50.822;4.324;2023-04-19T12:12:56;18.40;99.90
22436;DHT22;11385;50.822;4.324;2023-04-19T12:15:41;18.30;99.90
22436;DHT22;11385;50.822;4.324;2023-04-19T12:18:08;18.30;99.90
22436;DHT22;11385;50.822;4.324;2023-04-19T12:20:38;18.20;99.90
22436;DHT22;11385;50.822;4.324;2023-04-19T12:23:07;18.20;99.90
22436;DHT22;11385;50.822;4.324;2023-04-19T12:25:36;18.10;99.90
22436;DHT22;11385;50.822;4.324;2023-04-19T12:28:04;18.00;99.90
22436;DHT22;11385;50.822;4.324;2023-04-19T12:30:32;18.10;99.90
22436;DHT22;11385;50.822;4.324;2023-04-19T12:33:00;18.20;99.90
22436;DHT22;11385;50.822;4.324;2023-04-19T12:35:28;18.30;99.90
22436;DHT22;11385;50.822;4.324;2023-04-19T12:37:57;18.20;99.90
22436;DHT22;11385;50.822;4.324;2023-04-19T12:40:39;18.10;99.90
22436;DHT22;11385;50.822;4.324;2023-04-19T12:43:17;18.10;99.90
22436;DHT22;11385;50.822;4.324;2023-04-19T12:45:44;18.30;99.90
22436;DHT22;11385;50.822;4.324;2023-04-19T12:48:10;18.40;99.90
22436;DHT22;11385;50.822;4.324;2023-04-19T12:50:37;18.60;99.90
22436;DHT22;11385;50.822;4.324;2023-04-19T12:53:05;18.80;99.90
22436;DHT22;11385;50.822;4.324;2023-04-19T12:55:33;18.70;99.90
22436;DHT22;11385;50.822;4.324;2023-04-19T12:57:59;18.60;99.90
22436;DHT22;11385;50.822;4.324;2023-04-19T13:00:26;18.60;99.90
22436;DHT22;11385;50.822;4.324;2023-04-19T13:02:54;18.70;99.90
22436;DHT22;11385;50.822;4.324;2023-04-19T13:05:23;18.70;99.90
22436;DHT22;11385;50.822;4.324;2023-04-19T13:07:50;18.70;99.90
22436;DHT22;11385;50.822;4.324;2023-04-19T13:10:17;18.70;99.90
22436;DHT22;11385;50.822;4.324;2023-04-19T13:12:46;18.70;99.90
22436;DHT22;11385;50.822;4.324;2023-04-19T13:15:13;18.70;99.90
22436;DHT22;11385;50.822;4.324;2023-04-19T13:17:40;18.60;99.90
22436;DHT22;11385;50.822;4.324;2023-04-19T13:20:08;18.70;99.90
22436;DHT22;11385;50.822;4.324;2023-04-19T13:22:37;18.60;99.90
22436;DHT22;11385;50.822;4.324;2023-04-19T13:25:04;18.70;99.90
22436;DHT22;11385;50.822;4.324;2023-04-19T13:27:31;18.80;99.90
22436;DHT22;11385;50.822;4.324;2023-04-19T13:29:59;18.70;99.90
22436;DHT22;11385;50.822;4.324;2023-04-19T13:32:26;18.60;99.90
22436;DHT22;11385;50.822;4.324;2023-04-19T13:34:53;18.60;99.90
22436;DHT22;11385;50.822;4.324;2023-04-19T13:37:19;18.50;99.90
22436;DHT22;11385;50.822;4.324;2023-04-19T13:39:46;18.50;99.90
22436;DHT22;11385;50.822;4.324;2023-04-19T13:42:13;18.40;99.90
22436;DHT22;11385;50.822;4.324;2023-04-19T13:44:39;18.50;99.90
22436;DHT22;11385;50.822;4.324;2023-04-19T13:47:07;18.50;99.90
22436;DHT22;11385;50.822;4.324;2023-04-19T13:49:34;18.50;99.90
22436;DHT22;11385;50.822;4.324;2023-04-19T13:52:01;18.50;99.90
22436;DHT22;11385;50.822;4.324;2023-04-19T13:54:27;18.70;99.90
22436;DHT22;11385;50.822;4.324;2023-04-19T13:56:54;18.60;99.90
22436;DHT22;11385;50.822;4.324;2023-04-19T13:59:21;18.70;99.90
22436;DHT22;11385;50.822;4.324;2023-04-19T14:01:49;18.80;99.90
22436;DHT22;11385;50.822;4.324;2023-04-19T14:04:17;18.60;99.90
22436;DHT22;11385;50.822;4.324;2023-04-19T14:06:44;18.70;99.90
22436;DHT22;11385;50.822;4.324;2023-04-19T14:09:10;18.70;99.90
22436;DHT22;11385;50.822;4.324;2023-04-19T14:11:39;18.70;99.90
22436;DHT22;11385;50.822;4.324;2023-04-19T14:14:07;18.60;99.90
22436;DHT22;11385;50.822;4.324;2023-04-19T14:16:35;18.60;98.80
22436;DHT22;11385;50.822;4.324;2023-04-19T14:19:04;18.50;98.30
22436;DHT22;11385;50.822;4.324;2023-04-19T14:21:31;18.50;98.20
22436;DHT22;11385;50.822;4.324;2023-04-19T14:23:58;18.50;97.90
22436;DHT22;11385;50.822;4.324;2023-04-19T14:26:26;18.50;97.10
22436;DHT22;11385;50.822;4.324;2023-04-19T14:28:53;18.50;95.70
22436;DHT22;11385;50.822;4.324;2023-04-19T14:31:23;18.50;95.90
22436;DHT22;11385;50.822;4.324;2023-04-19T14:33:50;18.40;94.20
22436;DHT22;11385;50.822;4.324;2023-04-19T14:36:28;18.30;93.80
22436;DHT22;11385;50.822;4.324;2023-04-19T14:38:54;18.50;93.90
22436;DHT22;11385;50.822;4.324;2023-04-19T14:41:22;18.60;94.60
22436;DHT22;11385;50.822;4.324;2023-04-19T14:43:53;18.50;93.20
22436;DHT22;11385;50.822;4.324;2023-04-19T14:46:23;18.50;93.00
22436;DHT22;11385;50.822;4.324;2023-04-19T14:48:49;18.40;92.70
22436;DHT22;11385;50.822;4.324;2023-04-19T14:51:16;18.60;93.20
22436;DHT22;11385;50.822;4.324;2023-04-19T14:53:42;18.60;92.60
22436;DHT22;11385;50.822;4.324;2023-04-19T14:56:10;18.50;91.90
22436;DHT22;11385;50.822;4.324;2023-04-19T14:58:37;18.40;91.60
22436;DHT22;11385;50.822;4.324;2023-04-19T15:01:11;18.40;91.90
22436;DHT22;11385;50.822;4.324;2023-04-19T15:03:38;18.40;92.50
22436;DHT22;11385;50.822;4.324;2023-04-19T15:06:07;18.40;92.60
22436;DHT22;11385;50.822;4.324;2023-04-19T15:08:34;18.40;92.50
22436;DHT22;11385;50.822;4.324;2023-04-19T15:11:01;18.30;92.30
22436;DHT22;11385;50.822;4.324;2023-04-19T15:13:27;18.00;92.00
22436;DHT22;11385;50.822;4.324;2023-04-19T15:15:54;17.90;92.60
22436;DHT22;11385;50.822;4.324;2023-04-19T15:18:22;17.90;92.90
22436;DHT22;11385;50.822;4.324;2023-04-19T15:20:49;18.10;92.80
22436;DHT22;11385;50.822;4.324;2023-04-19T15:23:15;18.20;92.40
22436;DHT22;11385;50.822;4.324;2023-04-19T15:25:44;18.20;92.50
22436;DHT22;11385;50.822;4.324;2023-04-19T15:28:11;18.20;92.30
22436;DHT22;11385;50.822;4.324;2023-04-19T15:30:37;18.30;92.20
22436;DHT22;11385;50.822;4.324;2023-04-19T15:33:04;18.30;91.70
22436;DHT22;11385;50.822;4.324;2023-04-19T15:35:31;18.30;90.60
22436;DHT22;11385;50.822;4.324;2023-04-19T15:37:58;18.20;90.70
22436;DHT22;11385;50.822;4.324;2023-04-19T15:43:45;18.10;90.40
22436;DHT22;11385;50.822;4.324;2023-04-19T15:46:13;17.90;90.40
22436;DHT22;11385;50.822;4.324;2023-04-19T15:48:43;17.80;88.70
22436;DHT22;11385;50.822;4.324;2023-04-19T15:51:12;17.80;87.80
22436;DHT22;11385;50.822;4.324;2023-04-19T15:53:41;17.70;88.60
22436;DHT22;11385;50.822;4.324;2023-04-19T15:56:08;17.80;87.90